createdAt,value
2018-08-19T00:01:13.124Z,101483.22
2018-08-19T00:03:42.774Z,101487.48
2018-08-19T00:06:11.860Z,101479.49
2018-08-19T00:08:41.624Z,101477.88
2018-08-19T00:11:10.802Z,101484.64
2018-08-19T00:13:40.996Z,101484.98
2018-08-19T00:16:11.065Z,101482.10
2018-08-19T00:18:40.155Z,101486.48
2018-08-19T00:21:11.065Z,101481.13
2018-08-19T00:23:45.201Z,101483.42
2018-08-19T00:26:15.534Z,101474.13
2018-08-19T00:28:44.733Z,101478.68
2018-08-19T00:31:14.211Z,101473.90
2018-08-19T00:33:43.359Z,101481.13
2018-08-19T00:36:25.991Z,101481.13
2018-08-19T00:38:56.526Z,101478.26
2018-08-19T00:41:25.750Z,101479.83
2018-08-19T00:43:54.930Z,101482.62
2018-08-19T00:46:27.477Z,101480.07
2018-08-19T00:48:56.704Z,101479.75
2018-08-19T00:51:25.811Z,101476.31
2018-08-19T00:53:55.421Z,101476.03
2018-08-19T00:56:24.584Z,101473.75
2018-08-19T00:58:53.549Z,101467.34
2018-08-19T01:01:31.891Z,101471.25
2018-08-19T01:04:00.816Z,101468.88
2018-08-19T01:06:29.881Z,101473.52
2018-08-19T01:08:58.905Z,101465.72
2018-08-19T01:11:31.412Z,101463.34
2018-08-19T01:14:00.471Z,101463.20
2018-08-19T01:16:29.479Z,101465.57
2018-08-19T01:19:02.277Z,101459.98
2018-08-19T01:21:32.998Z,101462.78
2018-08-19T01:24:05.025Z,101458.56
2018-08-19T01:26:35.141Z,101458.56
2018-08-19T01:29:04.594Z,101458.14
2018-08-19T01:31:33.634Z,101463.53
2018-08-19T01:34:05.755Z,101463.53
2018-08-19T01:36:34.701Z,101453.78
2018-08-19T01:39:03.951Z,101454.41
2018-08-19T01:41:33.140Z,101444.98
2018-08-19T01:44:12.275Z,101444.98
2018-08-19T01:46:43.384Z,101449.88
2018-08-19T01:49:12.466Z,101446.57
2018-08-19T01:51:42.682Z,101445.13
2018-08-19T01:54:16.753Z,101443.70
2018-08-19T01:56:45.824Z,101443.87
2018-08-19T01:59:15.191Z,101446.52
2018-08-19T02:01:50.412Z,101450.28
2018-08-19T02:04:19.857Z,101447.53
2018-08-19T02:06:48.929Z,101445.02
2018-08-19T02:09:18.837Z,101439.81
2018-08-19T02:11:50.037Z,101441.47
2018-08-19T02:14:19.810Z,101437.72
2018-08-19T02:16:49.579Z,101439.48
2018-08-19T02:19:18.660Z,101437.68
2018-08-19T02:21:48.705Z,101438.28
2018-08-19T02:24:18.008Z,101434.27
2018-08-19T02:26:47.085Z,101436.63
2018-08-19T02:29:34.016Z,101432.99
2018-08-19T02:32:12.124Z,101436.89
2018-08-19T02:34:43.172Z,101441.08
2018-08-19T02:37:13.247Z,101445.78
2018-08-19T02:39:44.038Z,101446.86
2018-08-19T02:42:25.165Z,101448.75
2018-08-19T02:45:00.225Z,101444.34
2018-08-19T02:47:29.364Z,101442.81
2018-08-19T02:49:58.395Z,101433.30
2018-08-19T02:52:29.553Z,101435.80
2018-08-19T02:54:59.971Z,101434.91
2018-08-19T02:57:29.985Z,101433.45
2018-08-19T03:00:00.053Z,101428.98
2018-08-19T03:02:32.693Z,101434.16
2018-08-19T03:05:03.376Z,101433.37
2018-08-19T03:07:32.936Z,101433.84
2018-08-19T03:10:07.212Z,101432.51
2018-08-19T03:12:36.324Z,101429.45
2018-08-19T03:15:06.045Z,101429.48
2018-08-19T03:17:35.125Z,101419.74
2018-08-19T03:20:04.878Z,101423.50
2018-08-19T03:22:33.909Z,101424.47
2018-08-19T03:25:03.220Z,101420.23
2018-08-19T03:27:33.520Z,101420.72
2018-08-19T03:30:05.050Z,101422.57
2018-08-19T03:32:34.121Z,101413.84
2018-08-19T03:35:13.135Z,101419.45
2018-08-19T03:37:42.412Z,101419.36
2018-08-19T03:40:11.360Z,101409.70
2018-08-19T03:42:40.466Z,101409.57
2018-08-19T03:45:13.548Z,101405.53
2018-08-19T03:47:42.686Z,101404.83
2018-08-19T03:50:16.711Z,101408.55
2018-08-19T03:52:46.020Z,101408.73
2018-08-19T03:55:19.065Z,101406.22
2018-08-19T03:57:48.673Z,101405.80
2018-08-19T04:00:18.832Z,101411.18
2018-08-19T04:02:47.824Z,101410.20
2018-08-19T04:05:16.824Z,101411.31
2018-08-19T04:07:45.787Z,101414.61
2018-08-19T04:10:14.681Z,101416.50
2018-08-19T04:12:44.005Z,101413.41
2018-08-19T04:15:13.030Z,101414.98
2018-08-19T04:17:41.954Z,101411.97
2018-08-19T04:20:10.917Z,101415.58
2018-08-19T04:22:39.981Z,101420.97
2018-08-19T04:25:08.969Z,101416.09
2018-08-19T04:27:38.005Z,101418.28
2018-08-19T04:30:06.955Z,101415.27
2018-08-19T04:32:36.065Z,101412.98
2018-08-19T04:35:05.066Z,101419.66
2018-08-19T04:37:34.040Z,101413.53
2018-08-19T04:40:03.046Z,101415.20
2018-08-19T04:42:32.236Z,101419.09
2018-08-19T04:45:02.020Z,101414.95
2018-08-19T04:47:32.765Z,101408.80
2018-08-19T04:50:01.807Z,101409.64
2018-08-19T04:52:33.329Z,101410.33
2018-08-19T04:55:02.440Z,101411.53
2018-08-19T04:57:31.511Z,101413.37
2018-08-19T05:00:00.513Z,101414.20
2018-08-19T05:02:29.417Z,101419.11
2018-08-19T05:04:58.508Z,101416.61
2018-08-19T05:07:27.444Z,101410.34
2018-08-19T05:09:56.564Z,101414.77
2018-08-19T05:12:25.446Z,101410.80
2018-08-19T05:14:54.370Z,101410.45
2018-08-19T05:17:23.476Z,101413.23
2018-08-19T05:19:56.632Z,101415.25
2018-08-19T05:22:25.610Z,101411.17
2018-08-19T05:24:54.604Z,101414.94
2018-08-19T05:27:23.590Z,101420.03
2018-08-19T05:29:52.634Z,101423.13
2018-08-19T05:32:21.922Z,101421.57
2018-08-19T05:34:50.961Z,101429.38
2018-08-19T05:37:19.977Z,101430.28
2018-08-19T05:39:57.697Z,101428.58
2018-08-19T05:42:26.714Z,101424.91
2018-08-19T05:44:55.866Z,101425.06
2018-08-19T05:47:24.862Z,101416.17
2018-08-19T05:49:54.010Z,101421.59
2018-08-19T05:52:23.878Z,101410.36
2018-08-19T05:55:00.091Z,101424.44
2018-08-19T05:57:35.247Z,101412.87
2018-08-19T06:00:09.429Z,101412.63
2018-08-19T06:02:44.461Z,101407.78
2018-08-19T06:05:13.606Z,101408.82
2018-08-19T06:07:42.786Z,101411.77
2018-08-19T06:10:11.941Z,101413.59
2018-08-19T06:12:40.825Z,101410.41
2018-08-19T06:15:10.011Z,101404.16
2018-08-19T06:17:38.963Z,101411.62
2018-08-19T06:20:08.359Z,101407.86
2018-08-19T06:22:40.315Z,101407.75
2018-08-19T06:25:10.288Z,101406.72
2018-08-19T06:27:45.097Z,101408.08
2018-08-19T06:30:15.089Z,101407.95
2018-08-19T06:32:44.192Z,101406.82
2018-08-19T06:35:13.253Z,101406.82
2018-08-19T06:37:42.226Z,101405.30
2018-08-19T06:40:12.767Z,101407.74
2018-08-19T06:42:41.871Z,101405.68
2018-08-19T06:45:11.792Z,101406.53
2018-08-19T06:47:40.903Z,101405.95
2018-08-19T06:50:22.163Z,101414.39
2018-08-19T06:52:52.276Z,101417.20
2018-08-19T06:55:21.609Z,101412.87
2018-08-19T06:57:51.081Z,101414.01
2018-08-19T07:00:34.516Z,101416.33
2018-08-19T07:03:05.371Z,101412.35
2018-08-19T07:05:35.130Z,101408.38
2018-08-19T07:08:04.296Z,101413.02
2018-08-19T07:10:36.712Z,101404.48
2018-08-19T07:13:08.530Z,101409.78
2018-08-19T07:15:38.825Z,101411.52
2018-08-19T07:18:09.247Z,101406.93
2018-08-19T07:20:38.954Z,101412.29
2018-08-19T07:23:08.297Z,101407.20
2018-08-19T07:25:39.913Z,101401.67
2018-08-19T07:28:10.257Z,101404.16
2018-08-19T07:30:39.715Z,101405.59
2018-08-19T07:33:08.973Z,101395.56
2018-08-19T07:35:38.151Z,101400.05
2018-08-19T07:38:07.114Z,101407.75
2018-08-19T07:40:36.131Z,101399.01
2018-08-19T07:43:05.324Z,101397.95
2018-08-19T07:45:34.493Z,101403.75
2018-08-19T07:48:03.602Z,101402.99
2018-08-19T07:50:32.772Z,101402.89
2018-08-19T07:53:01.845Z,101393.08
2018-08-19T07:55:30.877Z,101395.95
2018-08-19T07:57:59.863Z,101397.73
2018-08-19T08:00:34.102Z,101393.97
2018-08-19T08:03:03.328Z,101397.61
2018-08-19T08:05:38.305Z,101399.32
2018-08-19T08:08:08.749Z,101399.48
2018-08-19T08:10:38.373Z,101404.27
2018-08-19T08:13:09.491Z,101400.75
2018-08-19T08:15:43.669Z,101397.27
2018-08-19T08:18:12.946Z,101393.81
2018-08-19T08:20:42.046Z,101397.97
2018-08-19T08:23:27.883Z,101391.83
2018-08-19T08:25:57.043Z,101397.93
2018-08-19T08:28:26.366Z,101401.47
2018-08-19T08:30:55.519Z,101399.13
2018-08-19T08:33:24.571Z,101394.79
2018-08-19T08:35:56.291Z,101399.02
2018-08-19T08:38:25.446Z,101394.19
2018-08-19T08:40:55.002Z,101399.76
2018-08-19T08:43:24.113Z,101397.59
2018-08-19T08:45:55.536Z,101396.48
2018-08-19T08:48:24.997Z,101406.06
2018-08-19T08:50:54.063Z,101398.40
2018-08-19T08:53:25.832Z,101394.47
2018-08-19T08:55:54.920Z,101390.03
2018-08-19T08:58:24.027Z,101391.28
2018-08-19T09:00:53.083Z,101391.80
2018-08-19T09:03:22.248Z,101396.42
2018-08-19T09:05:51.312Z,101391.92
2018-08-19T09:08:20.366Z,101389.00
2018-08-19T09:10:49.582Z,101386.07
2018-08-19T09:13:18.612Z,101389.40
2018-08-19T09:15:47.914Z,101391.84
2018-08-19T09:18:16.964Z,101384.18
2018-08-19T09:20:45.972Z,101382.27
2018-08-19T09:23:15.323Z,101386.84
2018-08-19T09:25:44.355Z,101370.44
2018-08-19T09:28:13.351Z,101371.05
2018-08-19T09:30:43.565Z,101371.09
2018-08-19T09:33:13.352Z,101361.26
2018-08-19T09:35:43.422Z,101360.17
2018-08-19T09:38:15.239Z,101359.88
2018-08-19T09:40:45.157Z,101357.63
2018-08-19T09:43:14.412Z,101366.00
2018-08-19T09:45:44.021Z,101367.03
2018-08-19T09:48:13.765Z,101356.00
2018-08-19T09:50:43.571Z,101356.09
2018-08-19T09:53:12.655Z,101345.05
2018-08-19T09:55:43.113Z,101343.36
2018-08-19T09:58:19.325Z,101342.42
2018-08-19T10:00:53.415Z,101328.37
2018-08-19T10:03:22.498Z,101329.44
2018-08-19T10:07:19.994Z,101330.73
2018-08-19T10:09:49.350Z,101328.06
2018-08-19T10:12:18.493Z,101329.35
2018-08-19T10:14:47.569Z,101326.48
2018-08-19T10:17:16.653Z,101327.70
2018-08-19T10:19:45.643Z,101325.85
2018-08-19T10:22:14.724Z,101319.33
2018-08-19T10:24:43.769Z,101323.00
2018-08-19T10:27:12.806Z,101314.96
2018-08-19T10:29:41.797Z,101308.91
2018-08-19T10:32:10.882Z,101306.97
2018-08-19T10:34:39.919Z,101302.23
2018-08-19T10:37:09.056Z,101304.44
2018-08-19T10:39:38.075Z,101303.08
2018-08-19T10:42:18.886Z,101300.71
2018-08-19T10:44:49.654Z,101296.02
2018-08-19T10:47:19.452Z,101296.75
2018-08-19T10:49:54.901Z,101298.64
2018-08-19T10:52:28.516Z,101290.70
2018-08-19T10:54:58.933Z,101284.44
2018-08-19T10:57:27.867Z,101289.00
2018-08-19T10:59:58.364Z,101283.74
2018-08-19T11:02:27.324Z,101280.52
2018-08-19T11:04:58.617Z,101283.92
2018-08-19T11:07:27.596Z,101282.41
2018-08-19T11:10:20.730Z,101278.91
2018-08-19T11:12:52.309Z,101276.84
2018-08-19T11:15:32.633Z,101278.56
2018-08-19T11:18:17.494Z,101268.88
2018-08-19T11:20:49.684Z,101264.00
2018-08-19T11:23:22.660Z,101266.14
2018-08-19T11:25:52.557Z,101272.41
2018-08-19T11:28:36.201Z,101265.78
2018-08-19T11:31:05.570Z,101255.23
2018-08-19T11:33:40.791Z,101261.14
2018-08-19T11:36:10.873Z,101263.36
2018-08-19T11:38:40.946Z,101268.11
2018-08-19T11:41:10.980Z,101260.98
2018-08-19T11:43:43.095Z,101253.94
2018-08-19T11:46:12.211Z,101256.19
2018-08-19T11:48:41.875Z,101248.34
2018-08-19T11:51:11.117Z,101250.05
2018-08-19T11:53:40.367Z,101259.91
2018-08-19T11:56:09.912Z,101256.48
2018-08-19T11:58:46.949Z,101241.97
2018-08-19T12:01:17.385Z,101252.29
2018-08-19T12:04:00.227Z,101254.06
2018-08-19T12:06:31.829Z,101254.92
2018-08-19T12:09:02.350Z,101247.85
2018-08-19T12:11:33.126Z,101242.48
2018-08-19T12:14:06.394Z,101233.37
2018-08-19T12:16:44.285Z,101237.52
2018-08-19T12:19:18.486Z,101231.65
2018-08-19T12:21:58.639Z,101233.95
2018-08-19T12:24:33.926Z,101222.16
2018-08-19T12:27:04.198Z,101222.12
2018-08-19T12:29:34.454Z,101216.45
2018-08-19T12:32:14.100Z,101212.23
2018-08-19T12:34:45.106Z,101215.25
2018-08-19T12:37:15.442Z,101211.41
2018-08-19T12:39:44.517Z,101208.89
2018-08-19T12:42:13.725Z,101203.89
2018-08-19T12:44:42.932Z,101204.40
2018-08-19T12:47:17.641Z,101205.58
2018-08-19T12:49:49.502Z,101196.89
2018-08-19T12:52:20.536Z,101190.36
2018-08-19T12:54:54.787Z,101179.92
2018-08-19T12:57:24.065Z,101182.08
2018-08-19T12:59:53.988Z,101186.09
2018-08-19T13:02:26.244Z,101179.79
2018-08-19T13:04:55.433Z,101176.50
2018-08-19T13:07:24.466Z,101174.52
2018-08-19T13:09:53.542Z,101173.05
2018-08-19T13:12:22.630Z,101161.56
2018-08-19T13:14:51.736Z,101150.09
2018-08-19T13:17:20.805Z,101156.28
2018-08-19T13:19:56.031Z,101153.86
2018-08-19T13:22:25.545Z,101145.60
2018-08-19T13:24:54.655Z,101144.81
2018-08-19T13:27:23.650Z,101138.37
2018-08-19T13:29:52.732Z,101121.64
2018-08-19T13:32:21.814Z,101124.67
2018-08-19T13:34:50.910Z,101127.44
2018-08-19T13:37:19.882Z,101116.84
2018-08-19T13:39:49.282Z,101123.64
2018-08-19T13:42:18.231Z,101119.22
2018-08-19T13:44:47.391Z,101119.13
2018-08-19T13:47:16.516Z,101113.30
2018-08-19T13:49:45.443Z,101111.81
2018-08-19T13:52:14.722Z,101106.02
2018-08-19T13:54:55.305Z,101090.75
2018-08-19T13:57:24.407Z,101084.89
2018-08-19T13:59:53.369Z,101089.48
2018-08-19T14:02:22.413Z,101091.86
2018-08-19T14:04:51.407Z,101090.80
2018-08-19T14:07:20.569Z,101086.48
2018-08-19T14:09:49.535Z,101080.92
2018-08-19T14:12:18.623Z,101081.78
2018-08-19T14:14:47.713Z,101075.20
2018-08-19T14:17:16.877Z,101063.89
2018-08-19T14:19:45.867Z,101074.42
2018-08-19T14:22:14.960Z,101068.13
2018-08-19T14:24:43.996Z,101073.41
2018-08-19T14:27:13.574Z,101068.59
2018-08-19T14:29:43.535Z,101065.17
2018-08-19T14:32:27.611Z,101072.72
2018-08-19T14:34:57.074Z,101070.39
2018-08-19T14:37:27.161Z,101066.45
2018-08-19T14:39:57.226Z,101068.39
2018-08-19T14:42:26.358Z,101069.59
2018-08-19T14:44:56.418Z,101067.87
2018-08-19T14:47:25.662Z,101063.41
2018-08-19T14:49:55.636Z,101057.85
2018-08-19T14:52:24.718Z,101053.33
2018-08-19T14:54:53.771Z,101055.19
2018-08-19T14:57:22.958Z,101059.11
2018-08-19T14:59:52.387Z,101054.55
2018-08-19T15:02:21.950Z,101053.98
2018-08-19T15:04:50.910Z,101056.69
2018-08-19T15:07:20.349Z,101044.93
2018-08-19T15:09:51.068Z,101040.34
2018-08-19T15:12:21.253Z,101036.52
2018-08-19T15:14:51.194Z,101037.37
2018-08-19T15:17:20.222Z,101042.75
2018-08-19T15:19:51.844Z,101036.46
2018-08-19T15:22:21.097Z,101025.84
2018-08-19T15:24:50.941Z,101029.66
2018-08-19T15:27:20.089Z,101030.87
2018-08-19T15:29:52.137Z,101029.58
2018-08-19T15:32:23.478Z,101026.81
2018-08-19T15:34:52.599Z,101028.36
2018-08-19T15:37:21.661Z,101038.19
2018-08-19T15:39:50.776Z,101034.66
2018-08-19T15:42:19.943Z,101034.22
2018-08-19T15:44:49.554Z,101027.69
2018-08-19T15:47:18.650Z,101024.59
2018-08-19T15:49:47.896Z,101010.08
2018-08-19T15:52:17.025Z,101025.55
2018-08-19T15:54:53.026Z,101012.75
2018-08-19T15:57:22.065Z,101015.80
2018-08-19T15:59:51.416Z,101002.55
2018-08-19T16:02:20.498Z,101009.08
2018-08-19T16:04:50.521Z,101004.92
2018-08-19T16:07:19.926Z,101005.45
2018-08-19T16:09:49.119Z,101001.23
2018-08-19T16:12:18.182Z,101008.85
2018-08-19T16:14:47.242Z,101000.39
2018-08-19T16:17:16.860Z,101004.00
2018-08-19T16:19:45.872Z,101008.99
2018-08-19T16:22:15.193Z,101005.84
2018-08-19T16:24:44.208Z,100995.03
2018-08-19T16:27:13.722Z,100993.64
2018-08-19T16:29:42.789Z,100996.56
2018-08-19T16:32:11.893Z,101001.13
2018-08-19T16:34:40.985Z,100998.77
2018-08-19T16:37:09.901Z,100991.45
2018-08-19T16:39:39.061Z,100993.41
2018-08-19T16:42:08.405Z,100992.35
2018-08-19T16:44:37.465Z,100999.62
2018-08-19T16:47:06.509Z,100993.58
2018-08-19T16:49:35.558Z,100990.41
2018-08-19T16:52:04.663Z,100985.58
2018-08-19T16:54:33.790Z,100998.83
2018-08-19T16:57:02.917Z,100999.47
2018-08-19T16:59:32.031Z,100992.95
2018-08-19T17:02:01.128Z,100988.36
2018-08-19T17:04:30.186Z,100986.95
2018-08-19T17:06:59.509Z,100990.80
2018-08-19T17:09:28.624Z,100992.78
2018-08-19T17:11:57.894Z,100993.09
2018-08-19T17:14:26.985Z,100992.19
2018-08-19T17:16:55.941Z,100993.48
2018-08-19T17:19:24.917Z,100993.07
2018-08-19T17:21:53.906Z,100990.97
2018-08-19T17:24:22.895Z,100985.61
2018-08-19T17:26:57.318Z,100986.00
2018-08-19T17:29:26.499Z,100982.98
2018-08-19T17:31:55.481Z,100990.84
2018-08-19T17:34:25.635Z,100986.45
2018-08-19T17:36:54.747Z,100988.36
2018-08-19T17:39:24.376Z,100997.19
2018-08-19T17:41:54.084Z,100990.20
2018-08-19T17:44:23.611Z,100998.27
2018-08-19T17:46:54.909Z,101003.27
2018-08-19T17:49:26.336Z,100996.77
2018-08-19T17:51:56.285Z,101003.27
2018-08-19T17:54:26.429Z,101002.13
2018-08-19T17:56:56.349Z,100993.30
2018-08-19T17:59:25.428Z,100990.50
2018-08-19T18:01:54.521Z,100993.08
2018-08-19T18:04:24.291Z,100997.29
2018-08-19T18:06:53.282Z,100994.28
2018-08-19T18:09:23.053Z,100998.39
2018-08-19T18:12:01.069Z,100999.91
2018-08-19T18:14:31.466Z,101001.48
2018-08-19T18:17:00.455Z,101004.91
2018-08-19T18:19:33.848Z,101002.81
2018-08-19T18:22:02.850Z,101008.41
2018-08-19T18:24:32.016Z,100998.14
2018-08-19T18:27:01.162Z,101001.02
2018-08-19T18:29:41.601Z,100994.86
2018-08-19T18:32:10.712Z,100994.70
2018-08-19T18:34:40.276Z,100998.33
2018-08-19T18:37:09.227Z,100994.62
2018-08-19T18:39:38.421Z,100995.33
2018-08-19T18:42:07.570Z,100999.58
2018-08-19T18:44:36.637Z,101002.91
2018-08-19T18:47:06.028Z,100997.27
2018-08-19T18:49:35.225Z,101002.52
2018-08-19T18:52:09.369Z,101000.13
2018-08-19T18:54:40.514Z,101002.13
2018-08-19T18:57:09.562Z,101003.00
2018-08-19T18:59:43.581Z,100997.59
2018-08-19T19:02:12.676Z,101006.36
2018-08-19T19:04:41.666Z,100997.86
2018-08-19T19:07:10.699Z,100997.64
2018-08-19T19:09:45.047Z,101001.74
2018-08-19T19:12:14.119Z,101000.40
2018-08-19T19:14:43.159Z,101002.02
2018-08-19T19:17:12.123Z,101005.05
2018-08-19T19:19:46.277Z,101010.49
2018-08-19T19:22:15.370Z,101010.73
2018-08-19T19:24:44.446Z,101013.77
2018-08-19T19:27:13.690Z,101014.06
2018-08-19T19:29:44.496Z,101009.69
2018-08-19T19:32:18.226Z,101015.16
2018-08-19T19:34:47.213Z,101012.18
2018-08-19T19:37:16.256Z,101011.96
2018-08-19T19:39:47.250Z,101003.77
2018-08-19T19:42:16.443Z,101007.02
2018-08-19T19:44:45.347Z,101010.26
2018-08-19T19:47:14.557Z,101008.62
2018-08-19T19:49:48.814Z,101009.43
2018-08-19T19:52:17.867Z,101008.05
2018-08-19T19:54:46.936Z,101000.67
2018-08-19T19:57:15.969Z,101002.30
2018-08-19T19:59:44.933Z,100997.67
2018-08-19T20:02:23.291Z,101003.14
2018-08-19T20:04:53.465Z,100994.70
2018-08-19T20:07:22.477Z,100997.98
2018-08-19T20:09:52.658Z,101000.17
2018-08-19T20:12:25.986Z,101001.81
2018-08-19T20:14:54.965Z,101000.45
2018-08-19T20:17:24.100Z,101000.16
2018-08-19T20:19:53.190Z,100999.61
2018-08-19T20:22:22.273Z,101005.33
2018-08-19T20:24:51.392Z,100996.06
2018-08-19T20:27:20.532Z,100999.34
2018-08-19T20:29:52.749Z,100999.87
2018-08-19T20:32:21.877Z,101000.70
2018-08-19T20:34:52.337Z,101003.19
2018-08-19T20:37:24.111Z,101007.00
2018-08-19T20:39:53.653Z,101002.08
2018-08-19T20:42:22.794Z,101005.36
2018-08-19T20:44:51.921Z,101008.66
2018-08-19T20:47:21.037Z,101013.30
2018-08-19T20:49:50.572Z,101008.69
2018-08-19T20:52:32.942Z,101012.52
2018-08-19T20:55:02.022Z,101011.69
2018-08-19T20:57:31.182Z,101010.61
2018-08-19T21:00:00.339Z,101013.34
2018-08-19T21:02:29.379Z,101022.89
2018-08-19T21:04:58.455Z,101017.69
2018-08-19T21:07:27.487Z,101015.53
2018-08-19T21:09:56.496Z,101017.69
2018-08-19T21:12:25.609Z,101019.05
2018-08-19T21:14:54.662Z,101018.25
2018-08-19T21:17:23.671Z,101021.23
2018-08-19T21:19:52.790Z,101020.98
2018-08-19T21:22:22.098Z,101019.87
2018-08-19T21:24:51.136Z,101030.52
2018-08-19T21:27:20.271Z,101023.96
2018-08-19T21:29:49.392Z,101032.42
2018-08-19T21:32:18.487Z,101027.80
2018-08-19T21:34:47.513Z,101031.88
2018-08-19T21:37:21.725Z,101031.30
2018-08-19T21:39:50.823Z,101029.40
2018-08-19T21:42:19.969Z,101033.24
2018-08-19T21:44:48.928Z,101039.23
2018-08-19T21:47:17.969Z,101035.69
2018-08-19T21:49:51.053Z,101034.05
2018-08-19T21:52:20.184Z,101036.52
2018-08-19T21:54:49.305Z,101028.06
2018-08-19T21:57:18.389Z,101032.15
2018-08-19T21:59:47.382Z,101030.78
2018-08-19T22:02:21.558Z,101030.25
2018-08-19T22:04:50.621Z,101029.97
2018-08-19T22:07:19.690Z,101019.86
2018-08-19T22:09:48.770Z,101023.70
2018-08-19T22:12:17.913Z,101029.39
2018-08-19T22:14:47.016Z,101021.22
2018-08-19T22:17:16.198Z,101025.31
2018-08-19T22:19:45.448Z,101017.67
2018-08-19T22:22:14.519Z,101027.24
2018-08-19T22:24:43.675Z,101023.44
2018-08-19T22:27:17.427Z,101025.88
2018-08-19T22:29:46.461Z,101029.42
2018-08-19T22:32:15.471Z,101023.72
2018-08-19T22:34:44.626Z,101023.72
2018-08-19T22:37:13.826Z,101024.79
2018-08-19T22:39:43.229Z,101023.42
2018-08-19T22:42:12.301Z,101021.23
2018-08-19T22:44:41.372Z,101022.88
2018-08-19T22:47:10.380Z,101024.50
2018-08-19T22:49:39.444Z,101022.88
2018-08-19T22:52:24.710Z,101020.41
2018-08-19T22:54:56.115Z,101019.87
2018-08-19T22:57:25.617Z,101018.50
2018-08-19T22:59:54.849Z,101019.87
2018-08-19T23:02:24.151Z,101019.86
2018-08-19T23:04:53.181Z,101028.05
2018-08-19T23:07:22.216Z,101025.32
2018-08-19T23:09:51.349Z,101030.23
2018-08-19T23:12:20.309Z,101030.23
2018-08-19T23:15:00.190Z,101028.03
2018-08-19T23:17:29.197Z,101035.39
2018-08-19T23:19:58.194Z,101034.85
2018-08-19T23:22:27.321Z,101032.95
2018-08-19T23:24:56.385Z,101028.56
2018-08-19T23:27:25.337Z,101028.31
2018-08-19T23:29:54.502Z,101027.49
2018-08-19T23:32:23.411Z,101027.21
2018-08-19T23:34:52.369Z,101028.86
2018-08-19T23:37:21.291Z,101031.30
2018-08-19T23:39:51.480Z,101034.84
2018-08-19T23:42:20.589Z,101033.49
2018-08-19T23:44:49.672Z,101034.32
2018-08-19T23:47:18.591Z,101029.95
2018-08-19T23:49:47.658Z,101032.68
2018-08-19T23:52:16.683Z,101034.88
2018-08-19T23:54:45.818Z,101035.98
2018-08-19T23:57:14.911Z,101034.88
2018-08-19T23:59:46.384Z,101033.80
